sensor_id;sensor_type;location;lat;lon;timestamp;P1;durP1;ratioP1;P2;durP2;ratioP2
10126;SDS011;13080;42.608;23.362;2023-04-06T00:00:24;12.40;;;6.95;;
10126;SDS011;13080;42.608;23.362;2023-04-06T00:02:51;17.58;;;7.82;;
10126;SDS011;13080;42.608;23.362;2023-04-06T00:05:18;11.57;;;7.30;;
10126;SDS011;13080;42.608;23.362;2023-04-06T00:07:45;10.45;;;6.97;;
10126;SDS011;13080;42.608;23.362;2023-04-06T00:10:12;10.50;;;6.35;;
10126;SDS011;13080;42.608;23.362;2023-04-06T00:12:39;11.43;;;6.88;;
10126;SDS011;13080;42.608;23.362;2023-04-06T00:15:07;11.95;;;7.30;;
10126;SDS011;13080;42.608;23.362;2023-04-06T00:17:35;12.00;;;6.72;;
10126;SDS011;13080;42.608;23.362;2023-04-06T00:20:02;11.70;;;7.32;;
10126;SDS011;13080;42.608;23.362;2023-04-06T00:22:29;11.60;;;6.75;;
10126;SDS011;13080;42.608;23.362;2023-04-06T00:24:56;14.52;;;7.57;;
10126;SDS011;13080;42.608;23.362;2023-04-06T00:27:23;9.32;;;6.53;;
10126;SDS011;13080;42.608;23.362;2023-04-06T00:29:50;12.88;;;6.78;;
10126;SDS011;13080;42.608;23.362;2023-04-06T00:32:18;14.02;;;7.03;;
10126;SDS011;13080;42.608;23.362;2023-04-06T00:34:45;10.93;;;7.22;;
10126;SDS011;13080;42.608;23.362;2023-04-06T00:37:11;16.17;;;10.88;;
10126;SDS011;13080;42.608;23.362;2023-04-06T00:39:38;15.63;;;10.27;;
10126;SDS011;13080;42.608;23.362;2023-04-06T00:42:07;13.95;;;8.57;;
10126;SDS011;13080;42.608;23.362;2023-04-06T00:47:05;11.70;;;6.68;;
10126;SDS011;13080;42.608;23.362;2023-04-06T00:49:33;13.18;;;7.43;;
10126;SDS011;13080;42.608;23.362;2023-04-06T00:52:00;15.15;;;7.25;;
10126;SDS011;13080;42.608;23.362;2023-04-06T00:54:28;9.77;;;5.97;;
10126;SDS011;13080;42.608;23.362;2023-04-06T00:56:55;10.55;;;6.45;;
10126;SDS011;13080;42.608;23.362;2023-04-06T00:59:23;11.40;;;6.60;;
10126;SDS011;13080;42.608;23.362;2023-04-06T01:01:50;13.63;;;7.93;;
10126;SDS011;13080;42.608;23.362;2023-04-06T01:04:16;16.95;;;10.32;;
10126;SDS011;13080;42.608;23.362;2023-04-06T01:06:45;11.27;;;7.25;;
10126;SDS011;13080;42.608;23.362;2023-04-06T01:09:12;14.15;;;7.80;;
10126;SDS011;13080;42.608;23.362;2023-04-06T01:11:38;9.93;;;6.43;;
10126;SDS011;13080;42.608;23.362;2023-04-06T01:14:05;13.85;;;7.70;;
10126;SDS011;13080;42.608;23.362;2023-04-06T01:16:32;14.05;;;6.82;;
10126;SDS011;13080;42.608;23.362;2023-04-06T01:19:00;11.50;;;6.70;;
10126;SDS011;13080;42.608;23.362;2023-04-06T01:21:26;12.13;;;7.07;;
10126;SDS011;13080;42.608;23.362;2023-04-06T01:23:55;11.32;;;6.35;;
10126;SDS011;13080;42.608;23.362;2023-04-06T01:26:22;14.10;;;6.78;;
10126;SDS011;13080;42.608;23.362;2023-04-06T01:28:48;9.70;;;5.75;;
10126;SDS011;13080;42.608;23.362;2023-04-06T01:31:15;8.95;;;5.82;;
10126;SDS011;13080;42.608;23.362;2023-04-06T01:33:42;9.18;;;5.90;;
10126;SDS011;13080;42.608;23.362;2023-04-06T01:36:09;9.18;;;5.97;;
10126;SDS011;13080;42.608;23.362;2023-04-06T01:38:36;10.98;;;6.68;;
10126;SDS011;13080;42.608;23.362;2023-04-06T01:41:04;10.00;;;6.13;;
10126;SDS011;13080;42.608;23.362;2023-04-06T01:43:31;10.57;;;5.57;;
10126;SDS011;13080;42.608;23.362;2023-04-06T01:45:58;10.35;;;6.15;;
10126;SDS011;13080;42.608;23.362;2023-04-06T01:48:25;13.50;;;6.95;;
10126;SDS011;13080;42.608;23.362;2023-04-06T01:50:52;10.50;;;6.85;;
10126;SDS011;13080;42.608;23.362;2023-04-06T01:53:19;11.43;;;7.13;;
10126;SDS011;13080;42.608;23.362;2023-04-06T01:55:46;9.35;;;5.55;;
10126;SDS011;13080;42.608;23.362;2023-04-06T01:58:14;9.25;;;5.30;;
10126;SDS011;13080;42.608;23.362;2023-04-06T02:00:41;11.13;;;6.43;;
10126;SDS011;13080;42.608;23.362;2023-04-06T02:03:08;12.02;;;5.70;;
10126;SDS011;13080;42.608;23.362;2023-04-06T02:05:35;9.80;;;5.53;;
10126;SDS011;13080;42.608;23.362;2023-04-06T02:08:03;9.23;;;5.78;;
10126;SDS011;13080;42.608;23.362;2023-04-06T02:10:30;9.77;;;5.63;;
10126;SDS011;13080;42.608;23.362;2023-04-06T02:12:57;11.70;;;6.20;;
10126;SDS011;13080;42.608;23.362;2023-04-06T02:15:25;10.20;;;6.70;;
10126;SDS011;13080;42.608;23.362;2023-04-06T02:17:53;8.73;;;5.68;;
10126;SDS011;13080;42.608;23.362;2023-04-06T02:20:20;10.57;;;5.80;;
10126;SDS011;13080;42.608;23.362;2023-04-06T02:22:47;9.90;;;6.47;;
10126;SDS011;13080;42.608;23.362;2023-04-06T02:25:13;13.20;;;7.57;;
10126;SDS011;13080;42.608;23.362;2023-04-06T02:27:40;8.93;;;6.25;;
10126;SDS011;13080;42.608;23.362;2023-04-06T02:30:07;9.43;;;5.93;;
10126;SDS011;13080;42.608;23.362;2023-04-06T02:32:36;10.40;;;5.63;;
10126;SDS011;13080;42.608;23.362;2023-04-06T02:35:03;11.68;;;6.82;;
10126;SDS011;13080;42.608;23.362;2023-04-06T02:37:31;8.35;;;5.47;;
10126;SDS011;13080;42.608;23.362;2023-04-06T02:39:57;14.50;;;5.47;;
10126;SDS011;13080;42.608;23.362;2023-04-06T02:42:24;9.18;;;5.45;;
10126;SDS011;13080;42.608;23.362;2023-04-06T02:44:51;9.05;;;5.60;;
10126;SDS011;13080;42.608;23.362;2023-04-06T02:47:18;7.85;;;5.10;;
10126;SDS011;13080;42.608;23.362;2023-04-06T02:49:46;12.68;;;6.75;;
10126;SDS011;13080;42.608;23.362;2023-04-06T02:52:13;8.77;;;5.53;;
10126;SDS011;13080;42.608;23.362;2023-04-06T02:54:40;8.98;;;5.47;;
10126;SDS011;13080;42.608;23.362;2023-04-06T02:57:07;12.82;;;7.40;;
10126;SDS011;13080;42.608;23.362;2023-04-06T02:59:34;11.18;;;5.70;;
10126;SDS011;13080;42.608;23.362;2023-04-06T03:02:01;11.80;;;5.35;;
10126;SDS011;13080;42.608;23.362;2023-04-06T03:04:28;11.93;;;6.07;;
10126;SDS011;13080;42.608;23.362;2023-04-06T03:06:56;9.85;;;5.55;;
10126;SDS011;13080;42.608;23.362;2023-04-06T03:09:22;9.13;;;5.18;;
10126;SDS011;13080;42.608;23.362;2023-04-06T03:11:49;8.27;;;5.32;;
10126;SDS011;13080;42.608;23.362;2023-04-06T03:14:16;12.32;;;7.38;;
10126;SDS011;13080;42.608;23.362;2023-04-06T03:16:46;8.05;;;4.53;;
10126;SDS011;13080;42.608;23.362;2023-04-06T03:19:13;8.25;;;4.57;;
10126;SDS011;13080;42.608;23.362;2023-04-06T03:21:41;11.05;;;6.30;;
10126;SDS011;13080;42.608;23.362;2023-04-06T03:24:10;10.00;;;5.13;;
10126;SDS011;13080;42.608;23.362;2023-04-06T03:26:38;9.00;;;5.40;;
10126;SDS011;13080;42.608;23.362;2023-04-06T03:29:04;10.38;;;4.28;;
10126;SDS011;13080;42.608;23.362;2023-04-06T03:31:31;8.85;;;5.40;;
10126;SDS011;13080;42.608;23.362;2023-04-06T03:33:58;8.10;;;4.93;;
10126;SDS011;13080;42.608;23.362;2023-04-06T03:36:25;8.90;;;5.10;;
10126;SDS011;13080;42.608;23.362;2023-04-06T03:38:52;9.85;;;5.13;;
10126;SDS011;13080;42.608;23.362;2023-04-06T03:41:21;10.15;;;5.85;;
10126;SDS011;13080;42.608;23.362;2023-04-06T03:43:47;11.90;;;6.95;;
10126;SDS011;13080;42.608;23.362;2023-04-06T03:46:15;11.18;;;6.25;;
10126;SDS011;13080;42.608;23.362;2023-04-06T03:48:41;11.15;;;6.18;;
10126;SDS011;13080;42.608;23.362;2023-04-06T03:51:08;13.02;;;6.97;;
10126;SDS011;13080;42.608;23.362;2023-04-06T03:53:35;13.20;;;6.95;;
10126;SDS011;13080;42.608;23.362;2023-04-06T03:56:02;13.32;;;7.80;;
10126;SDS011;13080;42.608;23.362;2023-04-06T03:58:31;10.02;;;7.00;;
10126;SDS011;13080;42.608;23.362;2023-04-06T04:00:58;10.77;;;6.15;;
10126;SDS011;13080;42.608;23.362;2023-04-06T04:03:25;9.35;;;6.05;;
10126;SDS011;13080;42.608;23.362;2023-04-06T04:05:52;11.13;;;6.57;;
10126;SDS011;13080;42.608;23.362;2023-04-06T04:08:20;6.40;;;4.63;;
10126;SDS011;13080;42.608;23.362;2023-04-06T04:10:46;13.50;;;8.45;;
10126;SDS011;13080;42.608;23.362;2023-04-06T04:13:13;12.57;;;7.53;;
10126;SDS011;13080;42.608;23.362;2023-04-06T04:15:41;11.05;;;6.72;;
10126;SDS011;13080;42.608;23.362;2023-04-06T04:18:08;14.98;;;7.40;;
10126;SDS011;13080;42.608;23.362;2023-04-06T04:20:35;11.10;;;5.90;;
10126;SDS011;13080;42.608;23.362;2023-04-06T04:23:02;9.70;;;5.93;;
10126;SDS011;13080;42.608;23.362;2023-04-06T04:25:29;11.38;;;6.65;;
10126;SDS011;13080;42.608;23.362;2023-04-06T04:27:55;7.28;;;4.75;;
10126;SDS011;13080;42.608;23.362;2023-04-06T04:30:22;9.38;;;6.07;;
10126;SDS011;13080;42.608;23.362;2023-04-06T04:32:51;8.50;;;4.30;;
10126;SDS011;13080;42.608;23.362;2023-04-06T04:35:18;8.20;;;5.55;;
10126;SDS011;13080;42.608;23.362;2023-04-06T04:37:44;7.22;;;5.00;;
10126;SDS011;13080;42.608;23.362;2023-04-06T04:40:11;13.57;;;7.78;;
10126;SDS011;13080;42.608;23.362;2023-04-06T04:42:39;11.68;;;7.68;;
10126;SDS011;13080;42.608;23.362;2023-04-06T04:45:06;8.20;;;5.75;;
10126;SDS011;13080;42.608;23.362;2023-04-06T04:47:33;6.88;;;4.43;;
10126;SDS011;13080;42.608;23.362;2023-04-06T04:50:02;13.82;;;4.95;;
10126;SDS011;13080;42.608;23.362;2023-04-06T04:52:29;8.43;;;5.30;;
10126;SDS011;13080;42.608;23.362;2023-04-06T04:54:55;8.60;;;4.93;;
10126;SDS011;13080;42.608;23.362;2023-04-06T04:57:22;11.02;;;5.63;;
10126;SDS011;13080;42.608;23.362;2023-04-06T04:59:49;9.40;;;5.40;;
10126;SDS011;13080;42.608;23.362;2023-04-06T05:02:16;7.35;;;5.13;;
10126;SDS011;13080;42.608;23.362;2023-04-06T05:04:43;6.80;;;4.63;;
10126;SDS011;13080;42.608;23.362;2023-04-06T05:07:11;7.72;;;5.40;;
10126;SDS011;13080;42.608;23.362;2023-04-06T05:09:38;5.15;;;3.22;;
10126;SDS011;13080;42.608;23.362;2023-04-06T05:12:05;24.10;;;14.23;;
10126;SDS011;13080;42.608;23.362;2023-04-06T05:14:32;9.27;;;3.83;;
10126;SDS011;13080;42.608;23.362;2023-04-06T05:16:59;5.03;;;3.72;;
10126;SDS011;13080;42.608;23.362;2023-04-06T05:19:26;5.32;;;3.22;;
10126;SDS011;13080;42.608;23.362;2023-04-06T05:21:53;7.05;;;3.50;;
10126;SDS011;13080;42.608;23.362;2023-04-06T05:24:21;5.85;;;3.40;;
10126;SDS011;13080;42.608;23.362;2023-04-06T05:26:48;6.50;;;3.40;;
10126;SDS011;13080;42.608;23.362;2023-04-06T05:29:15;4.43;;;3.30;;
10126;SDS011;13080;42.608;23.362;2023-04-06T05:31:43;3.90;;;2.85;;
10126;SDS011;13080;42.608;23.362;2023-04-06T05:34:09;6.57;;;3.67;;
10126;SDS011;13080;42.608;23.362;2023-04-06T05:36:37;7.25;;;4.13;;
10126;SDS011;13080;42.608;23.362;2023-04-06T05:39:05;5.40;;;3.53;;
10126;SDS011;13080;42.608;23.362;2023-04-06T05:41:33;7.10;;;3.90;;
10126;SDS011;13080;42.608;23.362;2023-04-06T05:44:00;5.28;;;3.47;;
10126;SDS011;13080;42.608;23.362;2023-04-06T05:46:27;4.05;;;2.60;;
10126;SDS011;13080;42.608;23.362;2023-04-06T05:48:54;7.55;;;3.90;;
10126;SDS011;13080;42.608;23.362;2023-04-06T05:51:21;4.35;;;2.70;;
10126;SDS011;13080;42.608;23.362;2023-04-06T05:53:48;5.00;;;3.25;;
10126;SDS011;13080;42.608;23.362;2023-04-06T05:56:14;3.80;;;2.60;;
10126;SDS011;13080;42.608;23.362;2023-04-06T05:58:43;7.90;;;3.05;;
10126;SDS011;13080;42.608;23.362;2023-04-06T06:01:10;4.18;;;2.90;;
10126;SDS011;13080;42.608;23.362;2023-04-06T06:03:36;5.50;;;3.42;;
10126;SDS011;13080;42.608;23.362;2023-04-06T06:06:16;7.13;;;4.07;;
10126;SDS011;13080;42.608;23.362;2023-04-06T06:08:43;8.60;;;4.85;;
10126;SDS011;13080;42.608;23.362;2023-04-06T06:11:10;9.07;;;4.97;;
10126;SDS011;13080;42.608;23.362;2023-04-06T06:13:37;6.82;;;4.43;;
10126;SDS011;13080;42.608;23.362;2023-04-06T06:16:04;12.85;;;6.85;;
10126;SDS011;13080;42.608;23.362;2023-04-06T06:18:31;10.90;;;5.78;;
10126;SDS011;13080;42.608;23.362;2023-04-06T06:20:58;13.25;;;6.45;;
10126;SDS011;13080;42.608;23.362;2023-04-06T06:23:26;9.85;;;6.03;;
10126;SDS011;13080;42.608;23.362;2023-04-06T06:25:53;5.60;;;3.60;;
10126;SDS011;13080;42.608;23.362;2023-04-06T06:28:22;7.43;;;4.28;;
10126;SDS011;13080;42.608;23.362;2023-04-06T06:30:51;8.90;;;5.18;;
10126;SDS011;13080;42.608;23.362;2023-04-06T06:33:18;6.78;;;3.58;;
10126;SDS011;13080;42.608;23.362;2023-04-06T06:35:45;4.65;;;3.33;;
10126;SDS011;13080;42.608;23.362;2023-04-06T06:38:12;6.32;;;3.40;;
10126;SDS011;13080;42.608;23.362;2023-04-06T06:40:40;9.38;;;3.30;;
10126;SDS011;13080;42.608;23.362;2023-04-06T06:43:07;5.47;;;3.97;;
10126;SDS011;13080;42.608;23.362;2023-04-06T06:45:34;6.63;;;3.72;;
10126;SDS011;13080;42.608;23.362;2023-04-06T06:48:01;5.20;;;3.33;;
10126;SDS011;13080;42.608;23.362;2023-04-06T06:50:28;4.60;;;2.90;;
10126;SDS011;13080;42.608;23.362;2023-04-06T06:52:55;3.72;;;2.15;;
10126;SDS011;13080;42.608;23.362;2023-04-06T06:55:22;5.05;;;2.95;;
10126;SDS011;13080;42.608;23.362;2023-04-06T06:57:50;4.15;;;3.05;;
10126;SDS011;13080;42.608;23.362;2023-04-06T07:00:17;6.95;;;4.00;;
10126;SDS011;13080;42.608;23.362;2023-04-06T07:02:45;5.35;;;3.53;;
10126;SDS011;13080;42.608;23.362;2023-04-06T07:05:12;4.28;;;2.67;;
10126;SDS011;13080;42.608;23.362;2023-04-06T07:07:39;6.05;;;3.58;;
10126;SDS011;13080;42.608;23.362;2023-04-06T07:10:07;4.93;;;3.20;;
10126;SDS011;13080;42.608;23.362;2023-04-06T07:12:34;6.60;;;4.65;;
10126;SDS011;13080;42.608;23.362;2023-04-06T07:15:03;9.50;;;4.30;;
10126;SDS011;13080;42.608;23.362;2023-04-06T07:17:30;7.88;;;4.32;;
10126;SDS011;13080;42.608;23.362;2023-04-06T07:19:57;7.93;;;4.63;;
10126;SDS011;13080;42.608;23.362;2023-04-06T07:22:24;10.25;;;4.68;;
10126;SDS011;13080;42.608;23.362;2023-04-06T07:24:51;4.80;;;3.45;;
10126;SDS011;13080;42.608;23.362;2023-04-06T07:27:17;6.93;;;4.43;;
10126;SDS011;13080;42.608;23.362;2023-04-06T07:29:44;5.80;;;3.13;;
10126;SDS011;13080;42.608;23.362;2023-04-06T07:32:12;5.88;;;3.33;;
10126;SDS011;13080;42.608;23.362;2023-04-06T07:34:39;6.05;;;3.72;;
10126;SDS011;13080;42.608;23.362;2023-04-06T07:37:06;6.50;;;4.03;;
10126;SDS011;13080;42.608;23.362;2023-04-06T07:39:33;9.00;;;4.15;;
10126;SDS011;13080;42.608;23.362;2023-04-06T07:42:00;5.75;;;4.00;;
10126;SDS011;13080;42.608;23.362;2023-04-06T07:44:27;6.13;;;3.70;;
10126;SDS011;13080;42.608;23.362;2023-04-06T07:46:54;8.05;;;4.43;;
10126;SDS011;13080;42.608;23.362;2023-04-06T07:49:22;7.50;;;4.35;;
10126;SDS011;13080;42.608;23.362;2023-04-06T07:51:49;6.72;;;4.45;;
10126;SDS011;13080;42.608;23.362;2023-04-06T07:54:16;9.23;;;5.55;;
10126;SDS011;13080;42.608;23.362;2023-04-06T07:56:43;5.95;;;4.15;;
10126;SDS011;13080;42.608;23.362;2023-04-06T07:59:09;8.45;;;4.75;;
10126;SDS011;13080;42.608;23.362;2023-04-06T08:01:38;7.78;;;5.03;;
10126;SDS011;13080;42.608;23.362;2023-04-06T08:04:05;6.28;;;3.60;;
10126;SDS011;13080;42.608;23.362;2023-04-06T08:06:33;5.95;;;3.72;;
10126;SDS011;13080;42.608;23.362;2023-04-06T08:09:01;5.53;;;3.22;;
10126;SDS011;13080;42.608;23.362;2023-04-06T08:11:28;6.03;;;4.00;;
10126;SDS011;13080;42.608;23.362;2023-04-06T08:13:55;5.60;;;3.97;;
10126;SDS011;13080;42.608;23.362;2023-04-06T08:16:22;5.68;;;3.40;;
10126;SDS011;13080;42.608;23.362;2023-04-06T08:18:50;6.75;;;3.00;;
10126;SDS011;13080;42.608;23.362;2023-04-06T08:21:16;5.55;;;3.10;;
10126;SDS011;13080;42.608;23.362;2023-04-06T08:23:45;5.90;;;3.40;;
10126;SDS011;13080;42.608;23.362;2023-04-06T08:26:12;6.45;;;3.60;;
10126;SDS011;13080;42.608;23.362;2023-04-06T08:28:39;5.50;;;3.35;;
10126;SDS011;13080;42.608;23.362;2023-04-06T08:31:06;7.40;;;3.72;;
10126;SDS011;13080;42.608;23.362;2023-04-06T08:33:33;6.10;;;3.78;;
10126;SDS011;13080;42.608;23.362;2023-04-06T08:36:06;7.03;;;4.25;;
10126;SDS011;13080;42.608;23.362;2023-04-06T08:38:35;5.00;;;3.30;;
10126;SDS011;13080;42.608;23.362;2023-04-06T08:41:07;5.10;;;3.47;;
10126;SDS011;13080;42.608;23.362;2023-04-06T08:43:38;6.20;;;3.63;;
10126;SDS011;13080;42.608;23.362;2023-04-06T08:46:10;4.50;;;3.33;;
10126;SDS011;13080;42.608;23.362;2023-04-06T08:48:38;5.47;;;3.88;;
10126;SDS011;13080;42.608;23.362;2023-04-06T08:51:06;6.43;;;3.92;;
10126;SDS011;13080;42.608;23.362;2023-04-06T08:53:34;5.28;;;3.92;;
10126;SDS011;13080;42.608;23.362;2023-04-06T08:56:01;8.10;;;4.57;;
10126;SDS011;13080;42.608;23.362;2023-04-06T08:58:32;9.02;;;4.68;;
10126;SDS011;13080;42.608;23.362;2023-04-06T09:01:01;6.55;;;4.13;;
10126;SDS011;13080;42.608;23.362;2023-04-06T09:03:30;7.65;;;4.35;;
10126;SDS011;13080;42.608;23.362;2023-04-06T09:06:00;6.70;;;4.93;;
10126;SDS011;13080;42.608;23.362;2023-04-06T09:08:27;6.00;;;3.83;;
10126;SDS011;13080;42.608;23.362;2023-04-06T09:10:54;5.43;;;3.38;;
10126;SDS011;13080;42.608;23.362;2023-04-06T09:13:21;6.65;;;3.88;;
10126;SDS011;13080;42.608;23.362;2023-04-06T09:15:59;7.22;;;4.05;;
10126;SDS011;13080;42.608;23.362;2023-04-06T09:18:30;5.47;;;4.00;;
10126;SDS011;13080;42.608;23.362;2023-04-06T09:20:58;6.43;;;3.90;;
10126;SDS011;13080;42.608;23.362;2023-04-06T09:23:25;7.78;;;4.68;;
10126;SDS011;13080;42.608;23.362;2023-04-06T09:26:02;4.78;;;3.28;;
10126;SDS011;13080;42.608;23.362;2023-04-06T09:28:40;5.07;;;3.30;;
10126;SDS011;13080;42.608;23.362;2023-04-06T09:31:09;6.60;;;4.05;;
10126;SDS011;13080;42.608;23.362;2023-04-06T09:33:37;6.15;;;4.30;;
10126;SDS011;13080;42.608;23.362;2023-04-06T09:36:05;5.22;;;3.78;;
10126;SDS011;13080;42.608;23.362;2023-04-06T09:38:33;6.57;;;4.15;;
10126;SDS011;13080;42.608;23.362;2023-04-06T09:40:59;5.93;;;3.50;;
10126;SDS011;13080;42.608;23.362;2023-04-06T09:43:26;8.60;;;4.65;;
10126;SDS011;13080;42.608;23.362;2023-04-06T09:45:53;5.13;;;4.20;;
10126;SDS011;13080;42.608;23.362;2023-04-06T09:48:23;8.30;;;4.55;;
10126;SDS011;13080;42.608;23.362;2023-04-06T09:50:52;8.57;;;4.57;;
10126;SDS011;13080;42.608;23.362;2023-04-06T09:53:24;10.18;;;4.13;;
10126;SDS011;13080;42.608;23.362;2023-04-06T09:55:55;7.43;;;4.65;;
10126;SDS011;13080;42.608;23.362;2023-04-06T09:58:26;6.93;;;4.47;;
10126;SDS011;13080;42.608;23.362;2023-04-06T10:01:01;7.13;;;4.35;;
10126;SDS011;13080;42.608;23.362;2023-04-06T10:03:35;6.95;;;4.65;;
10126;SDS011;13080;42.608;23.362;2023-04-06T10:06:09;8.43;;;4.50;;
10126;SDS011;13080;42.608;23.362;2023-04-06T10:08:38;8.73;;;3.80;;
10126;SDS011;13080;42.608;23.362;2023-04-06T10:11:07;6.88;;;4.03;;
10126;SDS011;13080;42.608;23.362;2023-04-06T10:13:35;9.80;;;5.13;;
10126;SDS011;13080;42.608;23.362;2023-04-06T10:16:02;7.57;;;4.72;;
10126;SDS011;13080;42.608;23.362;2023-04-06T10:18:30;5.38;;;4.03;;
10126;SDS011;13080;42.608;23.362;2023-04-06T10:21:00;6.57;;;4.20;;
10126;SDS011;13080;42.608;23.362;2023-04-06T10:23:31;12.02;;;5.78;;
10126;SDS011;13080;42.608;23.362;2023-04-06T10:26:01;9.27;;;4.82;;
10126;SDS011;13080;42.608;23.362;2023-04-06T10:28:30;8.48;;;5.20;;
10126;SDS011;13080;42.608;23.362;2023-04-06T10:30:58;8.95;;;4.80;;
10126;SDS011;13080;42.608;23.362;2023-04-06T10:33:26;7.70;;;4.78;;
10126;SDS011;13080;42.608;23.362;2023-04-06T10:35:53;11.10;;;5.70;;
10126;SDS011;13080;42.608;23.362;2023-04-06T10:38:22;6.45;;;4.15;;
10126;SDS011;13080;42.608;23.362;2023-04-06T10:41:03;10.25;;;5.47;;
10126;SDS011;13080;42.608;23.362;2023-04-06T10:43:32;8.13;;;5.25;;
10126;SDS011;13080;42.608;23.362;2023-04-06T10:46:01;7.50;;;3.90;;
10126;SDS011;13080;42.608;23.362;2023-04-06T10:48:36;9.18;;;4.93;;
10126;SDS011;13080;42.608;23.362;2023-04-06T10:51:07;8.32;;;5.20;;
10126;SDS011;13080;42.608;23.362;2023-04-06T10:53:36;10.25;;;5.80;;
10126;SDS011;13080;42.608;23.362;2023-04-06T10:56:04;11.13;;;6.32;;
10126;SDS011;13080;42.608;23.362;2023-04-06T10:58:36;9.48;;;5.07;;
10126;SDS011;13080;42.608;23.362;2023-04-06T11:01:02;12.20;;;5.75;;
10126;SDS011;13080;42.608;23.362;2023-04-06T11:03:29;9.57;;;5.57;;
10126;SDS011;13080;42.608;23.362;2023-04-06T11:05:57;9.43;;;5.53;;
10126;SDS011;13080;42.608;23.362;2023-04-06T11:08:29;10.75;;;6.18;;
10126;SDS011;13080;42.608;23.362;2023-04-06T11:11:05;9.98;;;6.07;;
10126;SDS011;13080;42.608;23.362;2023-04-06T11:16:11;10.05;;;6.15;;
10126;SDS011;13080;42.608;23.362;2023-04-06T11:18:46;8.57;;;6.00;;
10126;SDS011;13080;42.608;23.362;2023-04-06T11:21:13;7.97;;;5.70;;
10126;SDS011;13080;42.608;23.362;2023-04-06T11:23:40;8.50;;;5.80;;
10126;SDS011;13080;42.608;23.362;2023-04-06T11:26:11;9.52;;;5.95;;
10126;SDS011;13080;42.608;23.362;2023-04-06T11:28:39;9.15;;;5.85;;
10126;SDS011;13080;42.608;23.362;2023-04-06T11:31:07;9.05;;;6.05;;
10126;SDS011;13080;42.608;23.362;2023-04-06T11:33:37;9.40;;;5.97;;
10126;SDS011;13080;42.608;23.362;2023-04-06T11:36:05;9.40;;;5.78;;
10126;SDS011;13080;42.608;23.362;2023-04-06T11:38:32;10.00;;;5.40;;
10126;SDS011;13080;42.608;23.362;2023-04-06T11:41:00;11.57;;;6.30;;
10126;SDS011;13080;42.608;23.362;2023-04-06T11:43:30;11.35;;;5.32;;
10126;SDS011;13080;42.608;23.362;2023-04-06T11:46:00;8.75;;;5.63;;
10126;SDS011;13080;42.608;23.362;2023-04-06T11:48:28;8.65;;;5.68;;
10126;SDS011;13080;42.608;23.362;2023-04-06T11:50:55;12.35;;;6.55;;
10126;SDS011;13080;42.608;23.362;2023-04-06T11:53:23;8.05;;;5.90;;
10126;SDS011;13080;42.608;23.362;2023-04-06T11:55:50;7.95;;;5.63;;
10126;SDS011;13080;42.608;23.362;2023-04-06T11:58:17;7.75;;;5.43;;
10126;SDS011;13080;42.608;23.362;2023-04-06T12:00:45;8.43;;;5.82;;
10126;SDS011;13080;42.608;23.362;2023-04-06T12:03:12;9.65;;;5.93;;
10126;SDS011;13080;42.608;23.362;2023-04-06T12:05:39;11.15;;;6.82;;
10126;SDS011;13080;42.608;23.362;2023-04-06T12:08:06;9.43;;;5.60;;
10126;SDS011;13080;42.608;23.362;2023-04-06T12:10:33;8.02;;;5.93;;
10126;SDS011;13080;42.608;23.362;2023-04-06T12:12:59;8.57;;;5.82;;
10126;SDS011;13080;42.608;23.362;2023-04-06T12:15:26;9.40;;;5.95;;
10126;SDS011;13080;42.608;23.362;2023-04-06T12:17:54;11.40;;;6.05;;
10126;SDS011;13080;42.608;23.362;2023-04-06T12:20:21;6.88;;;5.45;;
10126;SDS011;13080;42.608;23.362;2023-04-06T12:22:48;11.10;;;6.40;;
10126;SDS011;13080;42.608;23.362;2023-04-06T12:25:15;8.10;;;6.18;;
10126;SDS011;13080;42.608;23.362;2023-04-06T12:27:42;8.48;;;5.53;;
10126;SDS011;13080;42.608;23.362;2023-04-06T12:30:09;6.72;;;5.25;;
10126;SDS011;13080;42.608;23.362;2023-04-06T12:32:36;8.93;;;5.40;;
10126;SDS011;13080;42.608;23.362;2023-04-06T12:35:05;7.43;;;5.65;;
10126;SDS011;13080;42.608;23.362;2023-04-06T12:37:34;10.32;;;5.80;;
10126;SDS011;13080;42.608;23.362;2023-04-06T12:40:02;10.75;;;6.15;;
10126;SDS011;13080;42.608;23.362;2023-04-06T12:42:29;8.02;;;5.35;;
10126;SDS011;13080;42.608;23.362;2023-04-06T12:44:56;11.32;;;5.53;;
10126;SDS011;13080;42.608;23.362;2023-04-06T12:47:22;8.55;;;6.30;;
10126;SDS011;13080;42.608;23.362;2023-04-06T12:49:51;9.77;;;5.80;;
10126;SDS011;13080;42.608;23.362;2023-04-06T12:52:20;10.18;;;6.55;;
10126;SDS011;13080;42.608;23.362;2023-04-06T12:54:47;7.28;;;5.03;;
10126;SDS011;13080;42.608;23.362;2023-04-06T12:57:14;11.77;;;6.15;;
10126;SDS011;13080;42.608;23.362;2023-04-06T12:59:42;6.82;;;5.35;;
10126;SDS011;13080;42.608;23.362;2023-04-06T13:02:09;11.35;;;7.07;;
10126;SDS011;13080;42.608;23.362;2023-04-06T13:04:36;13.95;;;6.20;;
10126;SDS011;13080;42.608;23.362;2023-04-06T13:07:03;7.68;;;5.80;;
10126;SDS011;13080;42.608;23.362;2023-04-06T13:09:32;7.22;;;5.00;;
10126;SDS011;13080;42.608;23.362;2023-04-06T13:11:59;10.38;;;5.78;;
10126;SDS011;13080;42.608;23.362;2023-04-06T13:14:26;5.95;;;4.57;;
10126;SDS011;13080;42.608;23.362;2023-04-06T13:16:52;8.73;;;5.47;;
10126;SDS011;13080;42.608;23.362;2023-04-06T13:19:19;7.38;;;5.00;;
10126;SDS011;13080;42.608;23.362;2023-04-06T13:21:46;7.75;;;5.15;;
10126;SDS011;13080;42.608;23.362;2023-04-06T13:24:13;8.30;;;5.07;;
10126;SDS011;13080;42.608;23.362;2023-04-06T13:26:42;7.95;;;5.80;;
10126;SDS011;13080;42.608;23.362;2023-04-06T13:29:09;8.18;;;5.35;;
10126;SDS011;13080;42.608;23.362;2023-04-06T13:31:35;8.13;;;4.80;;
10126;SDS011;13080;42.608;23.362;2023-04-06T13:34:03;8.07;;;4.70;;
10126;SDS011;13080;42.608;23.362;2023-04-06T13:36:30;10.02;;;4.75;;
10126;SDS011;13080;42.608;23.362;2023-04-06T13:38:57;8.98;;;5.40;;
10126;SDS011;13080;42.608;23.362;2023-04-06T13:41:25;9.60;;;5.07;;
10126;SDS011;13080;42.608;23.362;2023-04-06T13:43:54;8.30;;;5.45;;
10126;SDS011;13080;42.608;23.362;2023-04-06T13:46:21;9.05;;;5.60;;
10126;SDS011;13080;42.608;23.362;2023-04-06T13:48:49;7.63;;;5.55;;
10126;SDS011;13080;42.608;23.362;2023-04-06T13:51:16;8.98;;;5.30;;
10126;SDS011;13080;42.608;23.362;2023-04-06T13:53:42;7.70;;;5.60;;
10126;SDS011;13080;42.608;23.362;2023-04-06T13:56:09;8.65;;;5.28;;
10126;SDS011;13080;42.608;23.362;2023-04-06T13:58:36;8.85;;;5.60;;
10126;SDS011;13080;42.608;23.362;2023-04-06T14:01:05;10.20;;;5.97;;
10126;SDS011;13080;42.608;23.362;2023-04-06T14:03:34;12.70;;;6.05;;
10126;SDS011;13080;42.608;23.362;2023-04-06T14:06:01;7.43;;;5.28;;
10126;SDS011;13080;42.608;23.362;2023-04-06T14:08:36;8.25;;;4.90;;
10126;SDS011;13080;42.608;23.362;2023-04-06T14:11:03;9.18;;;5.68;;
10126;SDS011;13080;42.608;23.362;2023-04-06T14:13:30;7.90;;;5.90;;
10126;SDS011;13080;42.608;23.362;2023-04-06T14:15:57;11.48;;;6.82;;
10126;SDS011;13080;42.608;23.362;2023-04-06T14:18:25;9.35;;;5.57;;
10126;SDS011;13080;42.608;23.362;2023-04-06T14:20:56;7.85;;;5.43;;
10126;SDS011;13080;42.608;23.362;2023-04-06T14:23:24;11.63;;;5.57;;
10126;SDS011;13080;42.608;23.362;2023-04-06T14:25:51;8.88;;;5.60;;
10126;SDS011;13080;42.608;23.362;2023-04-06T14:28:26;11.95;;;6.18;;
10126;SDS011;13080;42.608;23.362;2023-04-06T14:30:53;8.50;;;5.55;;
10126;SDS011;13080;42.608;23.362;2023-04-06T14:33:20;8.27;;;5.65;;
10126;SDS011;13080;42.608;23.362;2023-04-06T14:35:48;8.27;;;5.50;;
10126;SDS011;13080;42.608;23.362;2023-04-06T14:38:14;11.90;;;6.10;;